Tula, Russia
Current Conditions -  °F | °C
As of 12:30 AM on Friday 24 Oct 2014 (Local Time) from UUDD Reporting Station
Broken Clouds Broken Clouds  
Wind Chill: 13°   Ceiling: 1300
Heat Index: 23°   Visibility: 6mi
Dew Point: 19°   Wind: 9mph
Humidity: 86%   Direction: 310°NW
Pressure: 30.39"   Gusts: NA
Location:  54.2°N, 37.61°E
Report Text: UUDD 232130Z 31004MPS 9999 BKN013 M05/M07 Q1029 3219009582190095 NOSIG
Loading
Personal Weather Stations






























Interactive Weather Map
Tropical Storm Tracking
New forecast layout! Learn more

10-Day Weather Forecast

Advertisements
Track Severe Weather on mobile